Time;durP1;ratioP1;P1;durP2;ratioP2;P2;SDS_P1;SDS_P2;PMS_P1;PMS_P2;Temp;Humidity;BMP_temperature;BMP_pressure;BME280_temperature;BME280_humidity;BME280_pressure;Samples;Min_cycle;Max_cycle;Signal;HPM_P1;HPM_P2
2021/12/27 00:00:14;;;;;;;0.30;0.20;;;6.60;99.90;;;;;;4918226;29;20455;-82
2021/12/27 00:02:42;;;;;;;0.50;0.50;;;6.60;99.90;;;;;;4918359;29;20471;-82
2021/12/27 00:05:11;;;;;;;0.83;0.30;;;6.50;99.90;;;;;;4917832;29;20458;-82
2021/12/27 00:07:38;;;;;;;0.30;0.30;;;6.50;99.90;;;;;;4917383;29;20483;-82
2021/12/27 00:10:06;;;;;;;0.30;0.30;;;6.50;99.90;;;;;;4917833;29;20496;-81
2021/12/27 00:12:33;;;;;;;0.40;0.40;;;6.50;99.90;;;;;;4917457;29;20867;-82
2021/12/27 00:15:00;;;;;;;0.30;0.30;;;6.50;99.90;;;;;;4917826;29;20467;-82
2021/12/27 00:17:26;;;;;;;0.30;0.30;;;6.50;99.90;;;;;;4917631;29;20444;-81
2021/12/27 00:19:55;;;;;;;0.30;0.20;;;6.50;99.90;;;;;;4917709;29;20456;-81
2021/12/27 00:22:23;;;;;;;1.60;0.63;;;6.40;99.90;;;;;;4917779;29;20480;-81
2021/12/27 00:24:51;;;;;;;0.37;0.37;;;6.40;99.90;;;;;;4917275;29;20950;-82
2021/12/27 00:27:19;;;;;;;0.87;0.73;;;6.30;99.90;;;;;;4917628;29;20445;-82
2021/12/27 00:29:46;;;;;;;0.40;0.40;;;6.30;99.90;;;;;;4917486;29;21045;-82
2021/12/27 00:32:12;;;;;;;0.30;0.20;;;6.20;99.90;;;;;;4918031;29;20992;-82
2021/12/27 00:34:39;;;;;;;0.30;0.30;;;6.20;99.90;;;;;;4917995;29;20440;-82
2021/12/27 00:37:08;;;;;;;0.37;0.37;;;6.10;99.90;;;;;;4917557;29;20456;-82
2021/12/27 00:39:37;;;;;;;0.30;0.30;;;6.10;99.90;;;;;;4916826;29;20824;-81
2021/12/27 00:42:05;;;;;;;0.40;0.40;;;6.10;99.90;;;;;;4916663;29;20988;-81
2021/12/27 00:44:32;;;;;;;0.30;0.30;;;6.10;99.90;;;;;;4917010;29;20456;-81
2021/12/27 00:46:59;;;;;;;0.30;0.27;;;6.10;99.90;;;;;;4916713;29;20455;-81
2021/12/27 00:49:26;;;;;;;0.30;0.30;;;6.10;99.90;;;;;;4916913;29;20495;-81
2021/12/27 00:51:53;;;;;;;0.47;0.47;;;6.10;99.90;;;;;;4916570;29;20823;-81
2021/12/27 00:54:20;;;;;;;0.30;0.20;;;6.00;99.90;;;;;;4916984;29;20448;-81
2021/12/27 00:56:48;;;;;;;0.30;0.30;;;6.00;99.90;;;;;;4916612;29;20452;-81
2021/12/27 00:59:15;;;;;;;2.00;1.97;;;6.10;99.90;;;;;;4916876;29;20475;-81
2021/12/27 01:01:42;;;;;;;0.60;0.60;;;6.00;99.90;;;;;;4916778;29;20504;-82
2021/12/27 01:04:09;;;;;;;0.30;0.30;;;5.90;99.90;;;;;;4916822;29;20451;-83
2021/12/27 01:06:36;;;;;;;0.30;0.20;;;5.90;99.90;;;;;;4916473;29;20836;-83
2021/12/27 01:09:03;;;;;;;0.30;0.30;;;5.90;99.90;;;;;;4919670;29;20487;-82
2021/12/27 01:11:40;;;;;;;0.50;0.50;;;5.80;99.90;;;;;;4920354;29;20476;-82
2021/12/27 01:14:14;;;;;;;0.30;0.30;;;5.80;99.90;;;;;;4920454;29;20462;-83
2021/12/27 01:16:44;;;;;;;0.70;0.60;;;5.80;99.90;;;;;;4920428;29;20444;-81
2021/12/27 01:19:11;;;;;;;0.30;0.30;;;5.70;99.90;;;;;;4919959;29;20447;-81
2021/12/27 01:21:38;;;;;;;0.30;0.30;;;5.70;99.90;;;;;;4919950;29;20460;-80
2021/12/27 01:24:06;;;;;;;0.30;0.30;;;5.70;99.90;;;;;;4920287;29;20944;-80
2021/12/27 01:26:33;;;;;;;0.93;0.93;;;5.60;99.90;;;;;;4920187;29;20451;-80
2021/12/27 01:29:01;;;;;;;0.33;0.33;;;5.70;99.90;;;;;;4919856;29;20863;-80
2021/12/27 01:31:29;;;;;;;0.77;0.77;;;5.60;99.90;;;;;;4920216;29;20468;-83
2021/12/27 01:33:56;;;;;;;0.30;0.30;;;5.60;99.90;;;;;;4920242;29;20460;-87
2021/12/27 01:36:23;;;;;;;0.30;0.30;;;5.60;99.90;;;;;;4920222;29;20460;-83
2021/12/27 01:38:50;;;;;;;0.30;0.30;;;5.60;99.90;;;;;;4920105;29;20451;-87
2021/12/27 01:41:18;;;;;;;0.30;0.30;;;5.50;99.90;;;;;;4920465;29;20456;-87
2021/12/27 01:43:45;;;;;;;0.30;0.30;;;5.50;99.90;;;;;;4920562;29;20447;-88
2021/12/27 01:46:15;;;;;;;0.30;0.30;;;5.50;99.90;;;;;;4920599;29;20805;-87
2021/12/27 01:48:48;;;;;;;0.40;0.40;;;5.50;99.90;;;;;;4920416;29;20453;-87
2021/12/27 01:51:18;;;;;;;1.13;0.77;;;5.60;99.90;;;;;;4920544;29;20453;-86
2021/12/27 01:53:46;;;;;;;0.30;0.30;;;5.60;99.90;;;;;;4920259;29;20444;-81
2021/12/27 01:56:16;;;;;;;0.30;0.30;;;5.60;99.90;;;;;;4919389;29;20453;-81
2021/12/27 01:58:44;;;;;;;0.30;0.30;;;5.60;99.90;;;;;;4919584;29;20437;-81
2021/12/27 02:01:13;;;;;;;0.50;0.40;;;5.60;99.90;;;;;;4920329;29;20493;-87
2021/12/27 02:03:41;;;;;;;0.53;0.53;;;5.60;99.90;;;;;;4920316;29;20432;-87
2021/12/27 02:06:10;;;;;;;0.40;0.40;;;5.60;99.90;;;;;;4919998;29;20484;-87
2021/12/27 02:08:39;;;;;;;0.50;0.50;;;5.60;99.90;;;;;;4919434;29;20943;-81
2021/12/27 02:11:07;;;;;;;0.30;0.20;;;5.60;99.90;;;;;;4919030;29;20460;-81
2021/12/27 02:13:34;;;;;;;0.30;0.30;;;5.50;99.90;;;;;;4919050;29;20831;-80
2021/12/27 02:16:01;;;;;;;0.30;0.20;;;5.50;99.90;;;;;;4919073;29;20796;-80
2021/12/27 02:18:27;;;;;;;0.30;0.30;;;5.50;99.90;;;;;;4919912;29;20799;-80
2021/12/27 02:20:56;;;;;;;0.30;0.30;;;5.50;99.90;;;;;;4919144;29;20448;-87
2021/12/27 02:23:23;;;;;;;0.30;0.20;;;5.50;99.90;;;;;;4919368;29;20467;-87
2021/12/27 02:25:52;;;;;;;0.40;0.40;;;5.50;99.90;;;;;;4919555;29;20455;-80
2021/12/27 02:28:20;;;;;;;0.30;0.20;;;5.60;99.90;;;;;;4918732;29;20456;-80
2021/12/27 02:30:50;;;;;;;0.30;0.20;;;5.60;99.90;;;;;;4918611;29;20492;-80
2021/12/27 02:33:17;;;;;;;0.30;0.20;;;5.70;99.90;;;;;;4918859;29;20476;-80
2021/12/27 02:35:46;;;;;;;0.43;0.43;;;5.60;99.90;;;;;;4918620;29;20467;-80
2021/12/27 02:38:18;;;;;;;0.40;0.40;;;5.60;99.90;;;;;;4918843;29;20452;-80
2021/12/27 02:40:45;;;;;;;0.30;0.20;;;5.60;99.90;;;;;;4918663;29;20416;-81
2021/12/27 02:43:15;;;;;;;0.30;0.30;;;5.60;99.90;;;;;;4918460;29;20467;-81
2021/12/27 02:45:43;;;;;;;0.30;0.30;;;5.60;99.90;;;;;;4918740;29;20440;-81
2021/12/27 02:48:11;;;;;;;0.40;0.40;;;5.60;99.90;;;;;;4918712;29;20463;-81
2021/12/27 02:50:40;;;;;;;0.30;0.27;;;5.60;99.90;;;;;;4918541;29;20495;-81
2021/12/27 02:53:08;;;;;;;0.77;0.77;;;5.60;99.90;;;;;;4918540;29;20481;-80
2021/12/27 02:55:37;;;;;;;0.30;0.20;;;5.60;99.90;;;;;;4918544;29;20459;-81
2021/12/27 02:58:05;;;;;;;0.60;0.60;;;5.60;99.90;;;;;;4918260;29;20960;-80
2021/12/27 03:00:35;;;;;;;0.40;0.30;;;5.70;99.90;;;;;;4918217;29;20805;-81
2021/12/27 03:03:02;;;;;;;0.40;0.30;;;5.70;99.90;;;;;;4918409;29;20478;-87
2021/12/27 03:05:30;;;;;;;0.30;0.20;;;5.70;99.90;;;;;;4918951;29;20464;-87
2021/12/27 03:07:58;;;;;;;0.30;0.30;;;5.70;99.90;;;;;;4918075;29;20444;-80
2021/12/27 03:10:28;;;;;;;0.30;0.20;;;5.70;99.90;;;;;;4917976;29;20507;-80
2021/12/27 03:12:58;;;;;;;0.50;0.50;;;5.80;99.90;;;;;;4917856;29;20992;-80
2021/12/27 03:15:26;;;;;;;0.50;0.50;;;5.80;99.90;;;;;;4918291;29;20452;-82
2021/12/27 03:17:54;;;;;;;0.30;0.30;;;5.80;99.90;;;;;;4918609;29;20810;-82
2021/12/27 03:20:23;;;;;;;0.30;0.27;;;5.80;99.90;;;;;;4918040;29;20451;-82
2021/12/27 03:22:50;;;;;;;0.50;0.50;;;5.80;99.90;;;;;;4917846;29;20464;-82
2021/12/27 03:25:19;;;;;;;0.30;0.20;;;5.80;99.90;;;;;;4917757;29;20480;-83
2021/12/27 03:27:47;;;;;;;0.30;0.20;;;5.80;99.90;;;;;;4917966;29;20464;-82
2021/12/27 03:30:18;;;;;;;0.30;0.30;;;5.80;99.90;;;;;;4917920;29;20492;-87
2021/12/27 03:32:45;;;;;;;0.40;0.30;;;5.80;99.90;;;;;;4918029;29;20461;-81
2021/12/27 03:35:17;;;;;;;0.73;0.67;;;5.80;99.90;;;;;;4917554;29;20455;-82
2021/12/27 03:37:47;;;;;;;0.30;0.20;;;5.80;99.90;;;;;;4917835;29;20444;-83
2021/12/27 03:40:16;;;;;;;0.30;0.30;;;5.80;99.90;;;;;;4917775;29;20448;-82
2021/12/27 03:42:49;;;;;;;0.30;0.20;;;5.70;99.90;;;;;;4917666;29;20476;-82
2021/12/27 03:45:20;;;;;;;0.30;0.30;;;5.70;99.90;;;;;;4917711;29;20444;-80
2021/12/27 03:47:47;;;;;;;0.60;0.60;;;5.60;99.90;;;;;;4917715;29;20432;-80
2021/12/27 03:50:15;;;;;;;0.50;0.50;;;5.60;99.90;;;;;;4917613;29;20544;-80
2021/12/27 03:52:41;;;;;;;0.30;0.30;;;5.60;99.90;;;;;;4917291;29;20467;-82
2021/12/27 03:55:09;;;;;;;0.30;0.30;;;5.60;99.90;;;;;;4917598;29;20459;-82
2021/12/27 03:57:38;;;;;;;0.60;0.60;;;5.60;99.90;;;;;;4917545;29;20459;-82
2021/12/27 04:00:28;;;;;;;0.30;0.30;;;5.60;99.90;;;;;;4917652;29;20448;-87
2021/12/27 04:03:00;;;;;;;0.30;0.20;;;5.50;99.90;;;;;;4918155;29;20484;-87
2021/12/27 04:05:28;;;;;;;0.30;0.30;;;5.50;99.90;;;;;;4918174;29;20531;-83
2021/12/27 04:08:04;;;;;;;0.37;0.30;;;5.50;99.90;;;;;;4917156;29;20951;-83
2021/12/27 04:10:31;;;;;;;0.30;0.30;;;5.50;99.90;;;;;;4917365;29;20476;-82
2021/12/27 04:12:58;;;;;;;0.30;0.20;;;5.50;99.90;;;;;;4916920;29;20995;-82
2021/12/27 04:15:24;;;;;;;0.30;0.20;;;5.40;99.90;;;;;;4917058;29;20468;-82
2021/12/27 04:17:52;;;;;;;2.53;0.53;;;5.30;99.90;;;;;;4917661;29;20815;-83
2021/12/27 04:20:21;;;;;;;0.30;0.30;;;5.30;99.90;;;;;;4917277;29;20448;-82
2021/12/27 04:22:48;;;;;;;0.53;0.53;;;5.30;99.90;;;;;;4917210;29;20504;-82
2021/12/27 04:25:17;;;;;;;0.30;0.20;;;5.30;99.90;;;;;;4916921;29;20456;-82
2021/12/27 04:27:44;;;;;;;0.40;0.40;;;5.30;99.90;;;;;;4917126;29;20468;-82
2021/12/27 04:30:12;;;;;;;0.30;0.20;;;5.40;99.90;;;;;;4916839;29;20475;-81
2021/12/27 04:32:39;;;;;;;0.30;0.20;;;5.40;99.90;;;;;;4917067;29;20483;-80
2021/12/27 04:35:07;;;;;;;0.30;0.30;;;5.40;99.90;;;;;;4916894;29;20447;-80
2021/12/27 04:37:35;;;;;;;0.30;0.30;;;5.30;99.90;;;;;;4916920;29;20451;-80
2021/12/27 04:40:04;;;;;;;0.83;0.30;;;5.30;99.90;;;;;;4916790;29;20448;-80
2021/12/27 04:42:31;;;;;;;0.30;0.30;;;5.30;99.90;;;;;;4918436;29;20487;-87
2021/12/27 04:44:59;;;;;;;1.13;0.93;;;5.40;99.90;;;;;;4921569;29;20488;-87
2021/12/27 04:47:26;;;;;;;0.30;0.30;;;5.40;99.90;;;;;;4921598;29;20463;-86
2021/12/27 04:49:53;;;;;;;0.30;0.30;;;5.50;99.90;;;;;;4921160;29;20488;-82
2021/12/27 04:52:20;;;;;;;0.30;0.30;;;5.50;99.90;;;;;;4920434;29;20460;-82
2021/12/27 04:54:48;;;;;;;0.30;0.20;;;5.50;99.90;;;;;;4920794;29;20452;-82
2021/12/27 04:57:15;;;;;;;0.30;0.20;;;5.60;99.90;;;;;;4920390;29;20991;-82
2021/12/27 04:59:42;;;;;;;0.30;0.20;;;5.60;99.90;;;;;;4920665;29;20448;-83
2021/12/27 05:02:08;;;;;;;0.30;0.20;;;5.60;99.90;;;;;;4920542;29;20468;-82
2021/12/27 05:04:36;;;;;;;0.40;0.40;;;5.60;99.90;;;;;;4920573;29;20452;-82
2021/12/27 05:07:03;;;;;;;0.30;0.30;;;5.60;99.90;;;;;;4920674;29;20487;-87
2021/12/27 05:09:30;;;;;;;0.30;0.20;;;5.60;99.90;;;;;;4920815;29;20452;-87
2021/12/27 05:11:58;;;;;;;0.30;0.23;;;5.70;99.90;;;;;;4920413;29;20475;-83
2021/12/27 05:14:25;;;;;;;0.30;0.30;;;5.70;99.90;;;;;;4920398;29;20456;-82
2021/12/27 05:16:51;;;;;;;0.30;0.30;;;5.70;99.90;;;;;;4920330;29;20459;-82
2021/12/27 05:19:18;;;;;;;0.30;0.30;;;5.70;99.90;;;;;;4920345;29;20448;-82
2021/12/27 05:21:45;;;;;;;0.30;0.20;;;5.70;99.90;;;;;;4920620;29;20468;-82
2021/12/27 05:24:13;;;;;;;0.30;0.20;;;5.70;99.90;;;;;;4919984;29;20440;-80
2021/12/27 05:26:40;;;;;;;2.00;0.40;;;5.80;99.90;;;;;;4919910;29;20463;-80
2021/12/27 05:29:08;;;;;;;0.37;0.27;;;5.70;99.90;;;;;;4919874;29;20811;-80
2021/12/27 05:31:34;;;;;;;0.30;0.20;;;5.70;99.90;;;;;;4919714;29;20479;-80
2021/12/27 05:34:01;;;;;;;0.30;0.20;;;5.70;99.90;;;;;;4919726;29;20456;-81
2021/12/27 05:36:28;;;;;;;0.30;0.30;;;5.60;99.90;;;;;;4920516;29;20963;-80
2021/12/27 05:38:55;;;;;;;0.60;0.40;;;5.50;99.90;;;;;;4920034;29;20463;-82
2021/12/27 05:41:21;;;;;;;0.30;0.20;;;5.50;99.90;;;;;;4919906;29;20452;-80
2021/12/27 05:43:48;;;;;;;0.50;0.50;;;5.50;99.90;;;;;;4919902;29;20455;-79
2021/12/27 05:46:16;;;;;;;0.30;0.20;;;5.40;99.90;;;;;;4919900;29;20829;-82
2021/12/27 05:48:43;;;;;;;0.40;0.40;;;5.40;99.90;;;;;;4919805;29;20440;-82
2021/12/27 05:51:10;;;;;;;0.40;0.30;;;5.30;99.90;;;;;;4919244;29;20867;-82
2021/12/27 05:53:36;;;;;;;0.30;0.20;;;5.30;99.90;;;;;;4919045;29;20452;-82
2021/12/27 05:56:03;;;;;;;0.30;0.30;;;5.30;99.90;;;;;;4919750;29;20459;-82
2021/12/27 05:58:30;;;;;;;0.30;0.20;;;5.20;99.90;;;;;;4921042;29;20451;-86
2021/12/27 06:00:57;;;;;;;0.67;0.67;;;5.20;99.90;;;;;;4931414;29;20455;-86
2021/12/27 06:03:25;;;;;;;0.30;0.30;;;5.20;99.90;;;;;;4920831;29;20475;-82
2021/12/27 06:05:51;;;;;;;0.30;0.20;;;5.20;99.90;;;;;;4919245;29;20495;-83
2021/12/27 06:08:18;;;;;;;0.60;0.60;;;5.20;99.90;;;;;;4919499;29;20452;-83
2021/12/27 06:10:45;;;;;;;0.30;0.20;;;5.10;99.90;;;;;;4919710;29;20490;-87
2021/12/27 06:13:12;;;;;;;0.30;0.30;;;5.10;99.90;;;;;;4919746;29;20480;-87
2021/12/27 06:15:38;;;;;;;0.30;0.20;;;5.10;99.90;;;;;;4920453;29;20847;-87
2021/12/27 06:18:05;;;;;;;0.30;0.20;;;5.00;99.90;;;;;;4919847;29;20448;-80
2021/12/27 06:20:33;;;;;;;0.30;0.23;;;5.00;99.90;;;;;;4918971;29;20456;-80
2021/12/27 06:23:00;;;;;;;0.30;0.20;;;4.90;99.90;;;;;;4919116;29;20476;-79
2021/12/27 06:25:27;;;;;;;0.30;0.30;;;4.90;99.90;;;;;;4918952;29;20440;-87
2021/12/27 06:27:54;;;;;;;0.90;0.90;;;4.80;99.90;;;;;;4919611;29;20452;-87
2021/12/27 06:30:21;;;;;;;0.30;0.20;;;4.80;99.90;;;;;;4919570;29;20492;-87
2021/12/27 06:32:48;;;;;;;0.30;0.30;;;4.70;99.90;;;;;;4919317;29;20476;-80
2021/12/27 06:35:16;;;;;;;0.30;0.20;;;4.70;99.90;;;;;;4919017;29;20463;-80
2021/12/27 06:37:46;;;;;;;0.30;0.20;;;4.60;99.90;;;;;;4918954;29;20453;-80
2021/12/27 06:40:14;;;;;;;0.30;0.20;;;4.60;99.90;;;;;;4918904;29;20452;-80
2021/12/27 06:42:41;;;;;;;0.30;0.20;;;4.50;99.90;;;;;;4918522;29;20487;-83
2021/12/27 06:45:08;;;;;;;0.30;0.20;;;4.50;99.90;;;;;;4918634;29;20444;-83
2021/12/27 06:47:35;;;;;;;0.30;0.30;;;4.40;99.90;;;;;;4918957;29;20456;-80
2021/12/27 06:50:02;;;;;;;0.30;0.30;;;4.40;99.90;;;;;;4918395;29;20960;-80
2021/12/27 06:52:29;;;;;;;0.30;0.20;;;4.40;99.90;;;;;;4918633;29;20472;-80
2021/12/27 06:54:57;;;;;;;0.30;0.30;;;4.30;99.90;;;;;;4918282;29;20944;-80
2021/12/27 06:57:24;;;;;;;0.40;0.30;;;4.30;99.90;;;;;;4918263;29;20448;-80
2021/12/27 06:59:51;;;;;;;0.30;0.20;;;4.20;99.90;;;;;;4918827;29;20455;-87
2021/12/27 07:02:17;;;;;;;1.67;1.57;;;4.20;99.90;;;;;;4918518;29;20468;-82
2021/12/27 07:04:44;;;;;;;0.30;0.30;;;4.10;99.90;;;;;;4917986;29;20464;-87
2021/12/27 07:07:11;;;;;;;0.30;0.30;;;4.10;99.90;;;;;;4922857;29;20491;-87
2021/12/27 07:09:38;;;;;;;0.30;0.30;;;4.10;99.90;;;;;;4918723;29;20460;-80
2021/12/27 07:12:08;;;;;;;0.30;0.20;;;4.10;99.90;;;;;;4917877;29;20869;-80
2021/12/27 07:14:34;;;;;;;0.30;0.30;;;4.10;99.90;;;;;;4918539;29;20455;-80
2021/12/27 07:17:01;;;;;;;0.30;0.20;;;4.10;99.90;;;;;;4918171;29;20475;-80
2021/12/27 07:19:28;;;;;;;0.43;0.43;;;4.20;99.90;;;;;;4918701;29;20460;-81
2021/12/27 07:21:56;;;;;;;0.30;0.27;;;4.20;99.90;;;;;;4917756;29;20876;-80
2021/12/27 07:24:22;;;;;;;0.30;0.30;;;4.20;99.90;;;;;;4917890;29;20808;-83
2021/12/27 07:26:49;;;;;;;0.30;0.30;;;4.20;99.90;;;;;;4918094;29;20507;-80
2021/12/27 07:29:18;;;;;;;0.30;0.30;;;4.20;99.90;;;;;;4918010;29;20440;-80
2021/12/27 07:31:44;;;;;;;0.30;0.30;;;4.20;99.90;;;;;;4917841;29;20502;-80
2021/12/27 07:34:12;;;;;;;0.30;0.20;;;4.20;99.90;;;;;;4917612;29;20802;-80
2021/12/27 07:36:39;;;;;;;0.30;0.20;;;4.20;99.90;;;;;;4917891;29;20539;-80
2021/12/27 07:39:07;;;;;;;0.50;0.50;;;4.30;99.90;;;;;;4917509;29;20960;-80
2021/12/27 07:41:34;;;;;;;0.30;0.23;;;4.40;99.90;;;;;;4917435;29;20979;-80
2021/12/27 07:44:00;;;;;;;0.30;0.30;;;4.40;99.90;;;;;;4917482;29;20952;-80
2021/12/27 07:46:28;;;;;;;0.30;0.20;;;4.50;99.90;;;;;;4917738;29;20455;-80
2021/12/27 07:48:55;;;;;;;0.30;0.30;;;4.50;99.90;;;;;;4917727;29;20452;-80
2021/12/27 07:51:22;;;;;;;0.30;0.20;;;4.50;99.90;;;;;;4917462;29;20488;-80
2021/12/27 07:53:49;;;;;;;0.40;0.30;;;4.60;99.90;;;;;;4917591;29;20452;-80
2021/12/27 07:56:16;;;;;;;0.30;0.30;;;4.60;99.90;;;;;;4917607;29;20501;-80
2021/12/27 07:58:42;;;;;;;0.30;0.30;;;4.70;99.90;;;;;;4917519;29;20463;-80
2021/12/27 08:01:09;;;;;;;0.30;0.20;;;4.80;99.90;;;;;;4917219;29;20440;-87
2021/12/27 08:03:37;;;;;;;0.40;0.40;;;4.80;99.90;;;;;;4917734;29;20445;-87
2021/12/27 08:06:04;;;;;;;0.30;0.30;;;4.80;99.90;;;;;;4917471;29;21026;-87
2021/12/27 08:08:31;;;;;;;0.30;0.30;;;4.80;99.90;;;;;;4917785;29;20456;-87
2021/12/27 08:10:58;;;;;;;0.70;0.70;;;4.90;99.90;;;;;;4917718;29;20484;-80
2021/12/27 08:13:24;;;;;;;0.30;0.30;;;4.90;99.90;;;;;;4917267;29;20475;-80
2021/12/27 08:15:52;;;;;;;0.30;0.30;;;5.00;99.90;;;;;;4917225;29;20456;-80
2021/12/27 08:18:19;;;;;;;1.07;0.40;;;5.00;99.90;;;;;;4917028;29;20444;-80
2021/12/27 08:20:48;;;;;;;0.40;0.37;;;5.10;99.90;;;;;;4917256;29;20464;-79
2021/12/27 08:23:15;;;;;;;0.30;0.20;;;5.10;99.90;;;;;;4917163;29;20468;-79
2021/12/27 08:25:42;;;;;;;0.50;0.50;;;5.20;99.90;;;;;;4917193;29;20460;-79
2021/12/27 08:28:09;;;;;;;0.30;0.20;;;5.20;99.90;;;;;;4917207;29;20805;-79
2021/12/27 08:30:36;;;;;;;0.30;0.30;;;5.30;99.90;;;;;;4917023;29;20472;-80
2021/12/27 08:33:03;;;;;;;0.30;0.30;;;5.30;99.90;;;;;;4917038;29;20523;-79
2021/12/27 08:35:30;;;;;;;0.50;0.47;;;5.30;99.90;;;;;;4917127;29;20447;-79
2021/12/27 08:37:58;;;;;;;0.30;0.30;;;5.40;99.90;;;;;;4917081;29;20821;-83
2021/12/27 08:40:24;;;;;;;0.30;0.20;;;5.40;99.90;;;;;;4916777;29;20452;-83
2021/12/27 08:42:51;;;;;;;0.30;0.20;;;5.40;99.90;;;;;;4916947;29;20479;-83
2021/12/27 08:45:18;;;;;;;0.30;0.30;;;5.50;99.90;;;;;;4917095;29;20813;-83
2021/12/27 08:47:45;;;;;;;0.30;0.30;;;5.50;99.90;;;;;;4917013;29;20452;-83
2021/12/27 08:50:13;;;;;;;0.30;0.30;;;5.60;99.90;;;;;;4917016;29;20456;-83
2021/12/27 08:52:41;;;;;;;0.40;0.30;;;5.70;99.90;;;;;;4916817;29;20898;-83
2021/12/27 08:55:10;;;;;;;0.30;0.30;;;5.70;99.90;;;;;;4917405;29;20852;-83
2021/12/27 08:57:36;;;;;;;0.30;0.27;;;5.80;99.90;;;;;;4916556;29;20444;-83
2021/12/27 09:00:06;;;;;;;0.30;0.23;;;5.90;99.90;;;;;;4916895;29;20459;-83
2021/12/27 09:02:33;;;;;;;0.30;0.27;;;6.00;99.90;;;;;;4916796;29;20479;-83
2021/12/27 09:05:00;;;;;;;0.30;0.20;;;6.10;99.90;;;;;;4916461;29;20460;-79
2021/12/27 09:07:26;;;;;;;0.30;0.20;;;6.10;99.90;;;;;;4916479;29;20488;-79
2021/12/27 09:09:53;;;;;;;0.53;0.53;;;6.20;99.90;;;;;;4916777;29;20464;-80
2021/12/27 09:12:21;;;;;;;0.40;0.40;;;6.20;99.90;;;;;;4916499;29;20487;-80
2021/12/27 09:14:50;;;;;;;0.30;0.30;;;6.30;99.90;;;;;;4916476;29;20460;-79
2021/12/27 09:17:17;;;;;;;0.30;0.30;;;6.30;99.90;;;;;;4916460;29;20464;-80
2021/12/27 09:19:43;;;;;;;0.30;0.30;;;6.40;99.90;;;;;;4916435;29;20460;-79
2021/12/27 09:22:13;;;;;;;0.30;0.30;;;6.50;99.90;;;;;;4916605;29;21054;-80
2021/12/27 09:24:40;;;;;;;0.30;0.20;;;6.60;99.90;;;;;;4916439;29;20503;-79
2021/12/27 09:27:07;;;;;;;0.30;0.30;;;6.70;99.90;;;;;;4916693;29;20467;-80
2021/12/27 09:29:35;;;;;;;0.40;0.40;;;6.70;99.90;;;;;;4919056;29;20799;-80
2021/12/27 09:32:02;;;;;;;0.30;0.30;;;6.70;99.90;;;;;;4919641;29;20487;-79
2021/12/27 09:34:29;;;;;;;0.30;0.30;;;6.80;99.90;;;;;;4920170;29;20460;-79
2021/12/27 09:36:56;;;;;;;0.30;0.30;;;6.80;99.90;;;;;;4919702;29;20467;-79
2021/12/27 09:39:22;;;;;;;0.33;0.30;;;6.80;99.90;;;;;;4919930;29;20815;-81
2021/12/27 09:41:49;;;;;;;0.33;0.30;;;6.80;99.90;;;;;;4919919;29;20476;-79
2021/12/27 09:44:16;;;;;;;0.30;0.30;;;6.90;99.90;;;;;;4919956;29;20452;-78
2021/12/27 09:46:45;;;;;;;0.30;0.20;;;7.00;99.90;;;;;;4919994;29;20460;-80
2021/12/27 09:49:14;;;;;;;0.30;0.20;;;7.10;99.90;;;;;;4919865;29;20448;-81
2021/12/27 09:51:42;;;;;;;0.30;0.30;;;7.20;99.90;;;;;;4919803;29;20496;-81
2021/12/27 09:54:09;;;;;;;0.30;0.30;;;7.70;99.90;;;;;;4919755;29;20462;-79
2021/12/27 09:56:37;;;;;;;0.30;0.30;;;8.70;99.90;;;;;;4919885;29;20467;-79
2021/12/27 09:59:04;;;;;;;0.30;0.20;;;10.30;99.90;;;;;;4919739;29;20467;-80
2021/12/27 10:01:31;;;;;;;0.30;0.20;;;11.90;99.90;;;;;;4919446;29;20830;-80
2021/12/27 10:04:01;;;;;;;0.40;0.40;;;13.10;99.90;;;;;;4919490;29;20440;-80
2021/12/27 10:06:30;;;;;;;0.40;0.30;;;14.00;99.90;;;;;;4919158;29;20845;-80
2021/12/27 10:08:58;;;;;;;0.60;0.33;;;14.40;99.90;;;;;;4919170;29;20956;-80
2021/12/27 10:11:27;;;;;;;1.40;0.73;;;14.80;99.90;;;;;;4919068;29;20479;-81
2021/12/27 10:14:06;;;;;;;0.43;0.40;;;14.80;99.90;;;;;;4919219;29;20973;-81
2021/12/27 10:16:35;;;;;;;2.77;0.60;;;14.70;99.90;;;;;;4919393;29;20451;-80
2021/12/27 10:19:07;;;;;;;0.40;0.30;;;13.80;99.90;;;;;;4919291;29;20470;-80
2021/12/27 10:21:34;;;;;;;0.30;0.30;;;13.20;99.90;;;;;;4919256;29;20472;-80
2021/12/27 10:24:07;;;;;;;0.73;0.40;;;12.50;99.90;;;;;;4919386;29;20417;-80
2021/12/27 10:26:35;;;;;;;0.37;0.37;;;11.70;99.90;;;;;;4919139;29;20451;-80
2021/12/27 10:29:17;;;;;;;0.30;0.20;;;11.30;99.90;;;;;;4918860;29;20444;-80
2021/12/27 10:31:59;;;;;;;0.30;0.30;;;10.80;99.90;;;;;;4918917;29;20492;-80
2021/12/27 10:34:31;;;;;;;0.30;0.30;;;10.60;99.90;;;;;;4919324;29;20447;-88
2021/12/27 10:37:14;;;;;;;0.30;0.30;;;10.20;99.90;;;;;;4919878;29;20441;-89
2021/12/27 10:39:52;;;;;;;0.67;0.30;;;10.10;99.90;;;;;;4919928;29;20919;-88
2021/12/27 10:42:21;;;;;;;0.30;0.30;;;9.80;99.90;;;;;;4925284;29;20468;-87
2021/12/27 10:44:51;;;;;;;0.30;0.30;;;9.70;99.90;;;;;;4924599;29;20443;-87
2021/12/27 10:47:30;;;;;;;0.30;0.30;;;9.50;99.90;;;;;;4921230;29;20814;-88
2021/12/27 10:50:03;;;;;;;0.53;0.37;;;9.40;99.90;;;;;;4919698;29;20848;-88
2021/12/27 10:52:49;;;;;;;0.30;0.30;;;9.30;99.90;;;;;;4919874;29;20492;-88
2021/12/27 10:55:18;;;;;;;0.30;0.20;;;9.20;99.90;;;;;;4919606;29;20445;-88
2021/12/27 10:57:45;;;;;;;0.40;0.30;;;9.10;99.90;;;;;;4919549;29;20934;-88
2021/12/27 11:00:25;;;;;;;0.50;0.50;;;9.10;99.90;;;;;;4919173;29;20448;-88
2021/12/27 11:02:52;;;;;;;0.30;0.30;;;9.00;99.90;;;;;;4919154;29;20474;-88
2021/12/27 11:05:23;;;;;;;0.30;0.30;;;8.90;99.90;;;;;;4919423;29;20810;-88
2021/12/27 11:07:50;;;;;;;0.30;0.30;;;8.80;99.90;;;;;;4881613;29;20445;-87
2021/12/27 11:10:20;;;;;;;0.30;0.20;;;8.70;99.90;;;;;;4881423;29;20445;-88
2021/12/27 11:12:47;;;;;;;0.30;0.30;;;8.60;99.90;;;;;;4881688;29;20525;-88
2021/12/27 11:15:14;;;;;;;0.40;0.30;;;8.60;99.90;;;;;;4881781;29;20453;-87
2021/12/27 11:17:43;;;;;;;0.37;0.30;;;8.60;99.90;;;;;;4881435;29;20423;-86
2021/12/27 11:20:12;;;;;;;0.30;0.20;;;8.70;99.90;;;;;;4881172;29;20442;-86
2021/12/27 11:22:42;;;;;;;0.30;0.30;;;8.70;99.90;;;;;;4880768;29;20470;-86
2021/12/27 11:25:21;;;;;;;0.40;0.40;;;8.80;99.90;;;;;;4881214;29;20420;-87
2021/12/27 11:27:48;;;;;;;0.77;0.47;;;8.90;99.90;;;;;;4881355;29;20426;-88
2021/12/27 11:30:22;;;;;;;0.30;0.30;;;8.90;99.90;;;;;;4881417;29;20450;-86
2021/12/27 11:33:09;;;;;;;0.30;0.30;;;9.10;99.90;;;;;;4880409;29;20497;-85
2021/12/27 11:35:40;;;;;;;0.30;0.20;;;9.20;99.90;;;;;;4880698;29;20442;-84
2021/12/27 11:38:19;;;;;;;0.30;0.30;;;9.20;99.90;;;;;;4880712;29;20821;-85
2021/12/27 11:40:47;;;;;;;0.30;0.30;;;9.20;99.90;;;;;;4880671;29;20443;-85
2021/12/27 11:43:14;;;;;;;0.30;0.30;;;9.10;99.90;;;;;;4880698;29;20492;-88
2021/12/27 11:45:46;;;;;;;0.40;0.40;;;9.20;99.90;;;;;;4880635;29;20438;-88
2021/12/27 11:48:15;;;;;;;3.33;0.70;;;9.20;99.90;;;;;;4880255;29;20885;-80
2021/12/27 11:51:08;;;;;;;0.30;0.30;;;9.20;99.90;;;;;;4879990;29;20445;-84
2021/12/27 11:53:38;;;;;;;0.30;0.30;;;9.10;99.90;;;;;;4875064;29;21073;-84
2021/12/27 11:56:11;;;;;;;0.50;0.30;;;9.10;99.90;;;;;;4880365;29;20461;-85
2021/12/27 11:58:40;;;;;;;0.30;0.30;;;9.00;99.90;;;;;;4880568;29;20449;-85
2021/12/27 12:01:37;;;;;;;0.30;0.30;;;9.00;99.90;;;;;;4880028;29;20467;-85
2021/12/27 12:04:04;;;;;;;0.37;0.30;;;9.00;99.90;;;;;;4879984;29;20489;-82
2021/12/27 12:06:41;;;;;;;0.73;0.30;;;9.00;99.90;;;;;;4897625;29;20476;-81
2021/12/27 12:09:16;;;;;;;0.30;0.20;;;9.00;99.90;;;;;;4916370;29;20476;-81
2021/12/27 12:11:44;;;;;;;0.30;0.20;;;8.90;99.90;;;;;;4916483;29;20476;-81
2021/12/27 12:14:30;;;;;;;0.30;0.30;;;8.90;99.90;;;;;;4916754;29;20463;-81
2021/12/27 12:16:59;;;;;;;0.40;0.30;;;8.90;99.90;;;;;;4916343;29;20443;-84
2021/12/27 12:19:40;;;;;;;0.30;0.30;;;8.90;99.90;;;;;;4916567;29;20452;-85
2021/12/27 12:22:08;;;;;;;0.30;0.20;;;8.90;99.90;;;;;;4916284;29;20467;-85
2021/12/27 12:24:36;;;;;;;0.30;0.30;;;8.80;99.90;;;;;;4916547;29;20448;-85
2021/12/27 12:27:08;;;;;;;1.03;0.60;;;8.80;99.90;;;;;;4916800;29;20470;-88
2021/12/27 12:29:39;;;;;;;0.30;0.30;;;8.80;99.90;;;;;;4916961;29;20781;-87
2021/12/27 12:32:07;;;;;;;0.67;0.67;;;8.80;99.90;;;;;;4916763;29;20810;-87
2021/12/27 12:34:34;;;;;;;0.40;0.40;;;8.80;99.90;;;;;;4917556;29;20459;-87
2021/12/27 12:37:04;;;;;;;0.30;0.20;;;8.80;99.90;;;;;;4916653;29;20463;-85
2021/12/27 12:39:39;;;;;;;0.30;0.20;;;8.90;99.90;;;;;;4916635;29;21023;-86
2021/12/27 12:42:09;;;;;;;0.30;0.20;;;8.90;99.90;;;;;;4916599;29;20476;-86
2021/12/27 12:44:47;;;;;;;0.33;0.33;;;8.90;99.90;;;;;;4916660;29;20459;-84
2021/12/27 12:47:14;;;;;;;0.30;0.20;;;8.90;99.90;;;;;;4916833;29;20413;-81
2021/12/27 12:49:41;;;;;;;0.83;0.30;;;8.90;99.90;;;;;;4916414;29;20456;-81
2021/12/27 12:52:07;;;;;;;0.60;0.40;;;9.00;99.90;;;;;;4916168;29;20483;-82
2021/12/27 12:54:39;;;;;;;0.30;0.30;;;9.00;99.90;;;;;;4916330;29;20460;-86
2021/12/27 12:57:07;;;;;;;0.40;0.30;;;9.00;99.90;;;;;;4916674;29;20931;-82
2021/12/27 12:59:36;;;;;;;0.50;0.30;;;9.00;99.90;;;;;;4916106;29;20953;-83
2021/12/27 13:02:06;;;;;;;0.40;0.40;;;9.10;99.90;;;;;;4916318;29;20491;-88